sensor_id;sensor_type;location;lat;lon;timestamp;P1;durP1;ratioP1;P2;durP2;ratioP2
12878;SDS011;20617;49.476;10.986;2023-08-17T00:01:16;4.07;;;3.58;;
12878;SDS011;20617;49.476;10.986;2023-08-17T00:03:21;4.93;;;3.78;;
12878;SDS011;20617;49.476;10.986;2023-08-17T00:05:29;5.57;;;3.85;;
12878;SDS011;20617;49.476;10.986;2023-08-17T00:07:40;4.60;;;3.88;;
12878;SDS011;20617;49.476;10.986;2023-08-17T00:09:45;6.93;;;4.50;;
12878;SDS011;20617;49.476;10.986;2023-08-17T00:11:51;5.35;;;4.10;;
12878;SDS011;20617;49.476;10.986;2023-08-17T00:13:56;4.78;;;4.07;;
12878;SDS011;20617;49.476;10.986;2023-08-17T00:16:04;4.90;;;4.07;;
12878;SDS011;20617;49.476;10.986;2023-08-17T00:18:10;7.35;;;4.68;;
12878;SDS011;20617;49.476;10.986;2023-08-17T00:22:22;6.90;;;4.73;;
12878;SDS011;20617;49.476;10.986;2023-08-17T00:24:28;5.35;;;4.28;;
12878;SDS011;20617;49.476;10.986;2023-08-17T00:26:36;4.97;;;4.00;;
12878;SDS011;20617;49.476;10.986;2023-08-17T00:28:42;5.57;;;4.35;;
12878;SDS011;20617;49.476;10.986;2023-08-17T00:30:47;6.90;;;4.32;;
12878;SDS011;20617;49.476;10.986;2023-08-17T00:32:53;4.50;;;3.85;;
12878;SDS011;20617;49.476;10.986;2023-08-17T00:35:17;5.05;;;4.00;;
12878;SDS011;20617;49.476;10.986;2023-08-17T00:37:32;6.18;;;4.88;;
12878;SDS011;20617;49.476;10.986;2023-08-17T00:39:53;4.95;;;4.40;;
12878;SDS011;20617;49.476;10.986;2023-08-17T00:42:09;5.93;;;4.63;;
12878;SDS011;20617;49.476;10.986;2023-08-17T00:44:27;8.70;;;5.25;;
12878;SDS011;20617;49.476;10.986;2023-08-17T00:46:33;6.65;;;4.90;;
12878;SDS011;20617;49.476;10.986;2023-08-17T00:49:02;7.82;;;5.18;;
12878;SDS011;20617;49.476;10.986;2023-08-17T00:51:08;6.72;;;4.85;;
12878;SDS011;20617;49.476;10.986;2023-08-17T00:53:18;9.02;;;5.80;;
12878;SDS011;20617;49.476;10.986;2023-08-17T00:55:27;9.63;;;5.35;;
12878;SDS011;20617;49.476;10.986;2023-08-17T00:57:33;7.00;;;4.70;;
12878;SDS011;20617;49.476;10.986;2023-08-17T00:59:39;6.00;;;5.40;;
12878;SDS011;20617;49.476;10.986;2023-08-17T01:01:56;7.22;;;4.78;;
12878;SDS011;20617;49.476;10.986;2023-08-17T01:06:06;6.40;;;4.80;;
12878;SDS011;20617;49.476;10.986;2023-08-17T01:10:13;6.13;;;4.78;;
12878;SDS011;20617;49.476;10.986;2023-08-17T01:12:24;5.53;;;4.82;;
12878;SDS011;20617;49.476;10.986;2023-08-17T01:14:37;6.70;;;4.47;;
12878;SDS011;20617;49.476;10.986;2023-08-17T01:16:52;7.50;;;5.22;;
12878;SDS011;20617;49.476;10.986;2023-08-17T01:19:07;6.75;;;4.38;;
12878;SDS011;20617;49.476;10.986;2023-08-17T01:21:13;6.25;;;4.60;;
12878;SDS011;20617;49.476;10.986;2023-08-17T01:23:24;5.85;;;4.43;;
12878;SDS011;20617;49.476;10.986;2023-08-17T01:25:29;5.43;;;4.22;;
12878;SDS011;20617;49.476;10.986;2023-08-17T01:27:39;5.70;;;4.30;;
12878;SDS011;20617;49.476;10.986;2023-08-17T01:29:45;6.60;;;4.03;;
12878;SDS011;20617;49.476;10.986;2023-08-17T01:31:53;6.15;;;4.50;;
12878;SDS011;20617;49.476;10.986;2023-08-17T01:34:05;5.22;;;4.03;;
12878;SDS011;20617;49.476;10.986;2023-08-17T01:36:17;4.80;;;4.30;;
12878;SDS011;20617;49.476;10.986;2023-08-17T01:38:29;6.47;;;4.43;;
12878;SDS011;20617;49.476;10.986;2023-08-17T01:40:36;10.38;;;5.53;;
12878;SDS011;20617;49.476;10.986;2023-08-17T01:42:39;5.55;;;4.20;;
12878;SDS011;20617;49.476;10.986;2023-08-17T01:44:45;5.20;;;4.05;;
12878;SDS011;20617;49.476;10.986;2023-08-17T01:46:50;5.47;;;4.95;;
12878;SDS011;20617;49.476;10.986;2023-08-17T01:48:57;4.95;;;4.32;;
12878;SDS011;20617;49.476;10.986;2023-08-17T01:50:59;6.57;;;4.78;;
12878;SDS011;20617;49.476;10.986;2023-08-17T01:55:12;5.03;;;4.30;;
12878;SDS011;20617;49.476;10.986;2023-08-17T01:57:17;7.65;;;5.50;;
12878;SDS011;20617;49.476;10.986;2023-08-17T01:59:25;5.55;;;4.75;;
12878;SDS011;20617;49.476;10.986;2023-08-17T02:01:30;7.70;;;4.57;;
12878;SDS011;20617;49.476;10.986;2023-08-17T02:03:38;4.60;;;4.10;;
12878;SDS011;20617;49.476;10.986;2023-08-17T02:05:44;7.97;;;4.38;;
12878;SDS011;20617;49.476;10.986;2023-08-17T02:07:49;6.60;;;4.55;;
12878;SDS011;20617;49.476;10.986;2023-08-17T02:12:02;4.80;;;4.20;;
12878;SDS011;20617;49.476;10.986;2023-08-17T02:14:09;6.20;;;4.00;;
12878;SDS011;20617;49.476;10.986;2023-08-17T02:18:17;5.85;;;5.13;;
12878;SDS011;20617;49.476;10.986;2023-08-17T02:22:27;6.93;;;4.65;;
12878;SDS011;20617;49.476;10.986;2023-08-17T02:26:37;4.82;;;4.13;;
12878;SDS011;20617;49.476;10.986;2023-08-17T02:28:45;7.53;;;5.20;;
12878;SDS011;20617;49.476;10.986;2023-08-17T02:30:54;7.30;;;4.97;;
12878;SDS011;20617;49.476;10.986;2023-08-17T02:33:02;5.43;;;4.85;;
12878;SDS011;20617;49.476;10.986;2023-08-17T02:35:07;8.38;;;4.82;;
12878;SDS011;20617;49.476;10.986;2023-08-17T02:37:13;5.70;;;5.07;;
12878;SDS011;20617;49.476;10.986;2023-08-17T02:39:20;13.63;;;5.13;;
12878;SDS011;20617;49.476;10.986;2023-08-17T02:41:25;5.82;;;4.53;;
12878;SDS011;20617;49.476;10.986;2023-08-17T02:43:32;7.20;;;4.35;;
12878;SDS011;20617;49.476;10.986;2023-08-17T02:45:37;6.82;;;4.15;;
12878;SDS011;20617;49.476;10.986;2023-08-17T02:47:42;6.95;;;4.90;;
12878;SDS011;20617;49.476;10.986;2023-08-17T02:49:49;5.82;;;4.40;;
12878;SDS011;20617;49.476;10.986;2023-08-17T02:51:54;7.95;;;4.82;;
12878;SDS011;20617;49.476;10.986;2023-08-17T02:53:59;8.48;;;6.30;;
12878;SDS011;20617;49.476;10.986;2023-08-17T02:56:02;6.97;;;4.18;;
12878;SDS011;20617;49.476;10.986;2023-08-17T02:58:07;7.75;;;4.43;;
12878;SDS011;20617;49.476;10.986;2023-08-17T03:00:13;5.32;;;4.13;;
12878;SDS011;20617;49.476;10.986;2023-08-17T03:02:22;5.03;;;4.20;;
12878;SDS011;20617;49.476;10.986;2023-08-17T03:04:27;7.45;;;4.07;;
12878;SDS011;20617;49.476;10.986;2023-08-17T03:08:37;6.43;;;4.50;;
12878;SDS011;20617;49.476;10.986;2023-08-17T03:10:45;5.10;;;4.35;;
12878;SDS011;20617;49.476;10.986;2023-08-17T03:12:52;5.95;;;4.38;;
12878;SDS011;20617;49.476;10.986;2023-08-17T03:17:03;4.50;;;3.83;;
12878;SDS011;20617;49.476;10.986;2023-08-17T03:19:11;10.82;;;5.57;;
12878;SDS011;20617;49.476;10.986;2023-08-17T03:21:18;6.70;;;4.68;;
12878;SDS011;20617;49.476;10.986;2023-08-17T03:23:23;6.00;;;5.15;;
12878;SDS011;20617;49.476;10.986;2023-08-17T03:25:28;5.10;;;4.60;;
12878;SDS011;20617;49.476;10.986;2023-08-17T03:27:36;5.13;;;4.25;;
12878;SDS011;20617;49.476;10.986;2023-08-17T03:29:43;5.80;;;4.70;;
12878;SDS011;20617;49.476;10.986;2023-08-17T03:33:57;6.78;;;4.10;;
12878;SDS011;20617;49.476;10.986;2023-08-17T03:36:06;5.65;;;5.05;;
12878;SDS011;20617;49.476;10.986;2023-08-17T03:38:11;5.90;;;4.50;;
12878;SDS011;20617;49.476;10.986;2023-08-17T03:40:15;5.55;;;4.20;;
12878;SDS011;20617;49.476;10.986;2023-08-17T03:42:20;10.88;;;5.13;;
12878;SDS011;20617;49.476;10.986;2023-08-17T03:46:30;5.68;;;5.10;;
12878;SDS011;20617;49.476;10.986;2023-08-17T03:48:35;5.97;;;5.38;;
12878;SDS011;20617;49.476;10.986;2023-08-17T03:50:40;5.95;;;5.28;;
12878;SDS011;20617;49.476;10.986;2023-08-17T03:52:49;10.32;;;5.72;;
12878;SDS011;20617;49.476;10.986;2023-08-17T03:54:54;7.28;;;4.78;;
12878;SDS011;20617;49.476;10.986;2023-08-17T03:57:00;5.43;;;4.93;;
12878;SDS011;20617;49.476;10.986;2023-08-17T04:01:10;4.80;;;4.17;;
12878;SDS011;20617;49.476;10.986;2023-08-17T04:03:16;6.50;;;4.80;;
12878;SDS011;20617;49.476;10.986;2023-08-17T04:05:24;5.18;;;4.43;;
12878;SDS011;20617;49.476;10.986;2023-08-17T04:07:29;6.55;;;5.35;;
12878;SDS011;20617;49.476;10.986;2023-08-17T04:11:41;6.30;;;5.38;;
12878;SDS011;20617;49.476;10.986;2023-08-17T04:15:54;8.20;;;5.22;;
12878;SDS011;20617;49.476;10.986;2023-08-17T04:17:59;5.15;;;4.53;;
12878;SDS011;20617;49.476;10.986;2023-08-17T04:20:04;6.10;;;5.22;;
12878;SDS011;20617;49.476;10.986;2023-08-17T04:22:10;8.18;;;5.38;;
12878;SDS011;20617;49.476;10.986;2023-08-17T04:26:23;5.38;;;4.88;;
12878;SDS011;20617;49.476;10.986;2023-08-17T04:28:29;10.13;;;6.05;;
12878;SDS011;20617;49.476;10.986;2023-08-17T04:32:39;7.38;;;5.60;;
12878;SDS011;20617;49.476;10.986;2023-08-17T04:34:44;8.77;;;5.47;;
12878;SDS011;20617;49.476;10.986;2023-08-17T04:36:50;6.88;;;5.40;;
12878;SDS011;20617;49.476;10.986;2023-08-17T04:40:59;5.95;;;5.35;;
12878;SDS011;20617;49.476;10.986;2023-08-17T04:43:09;6.43;;;5.70;;
12878;SDS011;20617;49.476;10.986;2023-08-17T04:45:14;8.60;;;5.72;;
12878;SDS011;20617;49.476;10.986;2023-08-17T04:47:21;5.90;;;4.90;;
12878;SDS011;20617;49.476;10.986;2023-08-17T04:49:27;7.32;;;5.68;;
12878;SDS011;20617;49.476;10.986;2023-08-17T04:51:32;6.53;;;4.93;;
12878;SDS011;20617;49.476;10.986;2023-08-17T04:53:37;7.38;;;5.55;;
12878;SDS011;20617;49.476;10.986;2023-08-17T04:55:45;6.22;;;5.45;;
12878;SDS011;20617;49.476;10.986;2023-08-17T04:57:50;6.60;;;5.38;;
12878;SDS011;20617;49.476;10.986;2023-08-17T04:59:58;6.57;;;5.60;;
12878;SDS011;20617;49.476;10.986;2023-08-17T05:02:03;8.52;;;5.90;;
12878;SDS011;20617;49.476;10.986;2023-08-17T05:04:09;8.93;;;5.95;;
12878;SDS011;20617;49.476;10.986;2023-08-17T05:06:14;8.05;;;6.05;;
12878;SDS011;20617;49.476;10.986;2023-08-17T05:08:19;7.78;;;5.55;;
12878;SDS011;20617;49.476;10.986;2023-08-17T05:10:23;9.05;;;5.47;;
12878;SDS011;20617;49.476;10.986;2023-08-17T05:12:28;7.68;;;5.93;;
12878;SDS011;20617;49.476;10.986;2023-08-17T05:14:34;7.47;;;5.88;;
12878;SDS011;20617;49.476;10.986;2023-08-17T05:16:42;8.27;;;5.68;;
12878;SDS011;20617;49.476;10.986;2023-08-17T05:18:47;7.05;;;5.55;;
12878;SDS011;20617;49.476;10.986;2023-08-17T05:20:53;7.82;;;5.22;;
12878;SDS011;20617;49.476;10.986;2023-08-17T05:22:58;10.05;;;6.65;;
12878;SDS011;20617;49.476;10.986;2023-08-17T05:25:04;7.95;;;6.20;;
12878;SDS011;20617;49.476;10.986;2023-08-17T05:27:12;8.23;;;5.00;;
12878;SDS011;20617;49.476;10.986;2023-08-17T05:31:24;6.70;;;5.25;;
12878;SDS011;20617;49.476;10.986;2023-08-17T05:33:32;6.25;;;5.20;;
12878;SDS011;20617;49.476;10.986;2023-08-17T05:35:37;9.20;;;6.03;;
12878;SDS011;20617;49.476;10.986;2023-08-17T05:37:44;9.57;;;5.60;;
12878;SDS011;20617;49.476;10.986;2023-08-17T05:39:49;8.77;;;5.47;;
12878;SDS011;20617;49.476;10.986;2023-08-17T05:41:55;5.88;;;5.28;;
12878;SDS011;20617;49.476;10.986;2023-08-17T05:43:57;9.43;;;5.75;;
12878;SDS011;20617;49.476;10.986;2023-08-17T05:46:02;9.50;;;5.90;;
12878;SDS011;20617;49.476;10.986;2023-08-17T05:48:09;6.38;;;5.38;;
12878;SDS011;20617;49.476;10.986;2023-08-17T05:50:17;6.72;;;6.03;;
12878;SDS011;20617;49.476;10.986;2023-08-17T05:52:22;7.60;;;5.05;;
12878;SDS011;20617;49.476;10.986;2023-08-17T05:54:30;6.45;;;5.28;;
12878;SDS011;20617;49.476;10.986;2023-08-17T05:56:35;6.03;;;5.32;;
12878;SDS011;20617;49.476;10.986;2023-08-17T05:58:46;7.18;;;6.03;;
12878;SDS011;20617;49.476;10.986;2023-08-17T06:02:56;9.18;;;6.05;;
12878;SDS011;20617;49.476;10.986;2023-08-17T06:05:03;7.82;;;5.40;;
12878;SDS011;20617;49.476;10.986;2023-08-17T06:07:11;6.15;;;5.20;;
12878;SDS011;20617;49.476;10.986;2023-08-17T06:09:16;6.38;;;5.35;;
12878;SDS011;20617;49.476;10.986;2023-08-17T06:13:26;8.13;;;5.97;;
12878;SDS011;20617;49.476;10.986;2023-08-17T06:17:36;10.13;;;6.20;;
12878;SDS011;20617;49.476;10.986;2023-08-17T06:21:45;8.65;;;6.00;;
12878;SDS011;20617;49.476;10.986;2023-08-17T06:23:53;13.18;;;5.93;;
12878;SDS011;20617;49.476;10.986;2023-08-17T06:25:58;6.95;;;5.47;;
12878;SDS011;20617;49.476;10.986;2023-08-17T06:28:05;8.50;;;6.47;;
12878;SDS011;20617;49.476;10.986;2023-08-17T06:30:09;8.73;;;6.15;;
12878;SDS011;20617;49.476;10.986;2023-08-17T06:32:14;10.50;;;6.38;;
12878;SDS011;20617;49.476;10.986;2023-08-17T06:36:25;5.97;;;5.35;;
12878;SDS011;20617;49.476;10.986;2023-08-17T06:38:30;11.30;;;6.93;;
12878;SDS011;20617;49.476;10.986;2023-08-17T06:42:42;7.03;;;5.90;;
12878;SDS011;20617;49.476;10.986;2023-08-17T06:46:52;12.80;;;6.88;;
12878;SDS011;20617;49.476;10.986;2023-08-17T06:48:58;8.50;;;6.15;;
12878;SDS011;20617;49.476;10.986;2023-08-17T06:51:04;11.68;;;6.78;;
12878;SDS011;20617;49.476;10.986;2023-08-17T06:55:14;8.30;;;6.60;;
12878;SDS011;20617;49.476;10.986;2023-08-17T06:57:22;6.65;;;5.18;;
12878;SDS011;20617;49.476;10.986;2023-08-17T06:59:27;6.10;;;5.50;;
12878;SDS011;20617;49.476;10.986;2023-08-17T07:03:38;13.35;;;6.82;;
12878;SDS011;20617;49.476;10.986;2023-08-17T07:05:44;7.47;;;5.68;;
12878;SDS011;20617;49.476;10.986;2023-08-17T07:07:49;11.98;;;6.70;;
12878;SDS011;20617;49.476;10.986;2023-08-17T07:09:54;11.75;;;6.40;;
12878;SDS011;20617;49.476;10.986;2023-08-17T07:12:02;7.97;;;6.53;;
12878;SDS011;20617;49.476;10.986;2023-08-17T07:14:10;7.70;;;5.97;;
12878;SDS011;20617;49.476;10.986;2023-08-17T07:16:15;7.55;;;5.50;;
12878;SDS011;20617;49.476;10.986;2023-08-17T07:18:20;9.02;;;6.07;;
12878;SDS011;20617;49.476;10.986;2023-08-17T07:22:28;6.18;;;5.57;;
12878;SDS011;20617;49.476;10.986;2023-08-17T07:24:33;7.78;;;6.38;;
12878;SDS011;20617;49.476;10.986;2023-08-17T07:26:38;9.57;;;6.47;;
12878;SDS011;20617;49.476;10.986;2023-08-17T07:28:43;6.60;;;5.90;;
12878;SDS011;20617;49.476;10.986;2023-08-17T07:32:56;9.15;;;6.03;;
12878;SDS011;20617;49.476;10.986;2023-08-17T07:35:01;9.48;;;5.50;;
12878;SDS011;20617;49.476;10.986;2023-08-17T07:37:06;5.45;;;4.95;;
12878;SDS011;20617;49.476;10.986;2023-08-17T07:39:14;6.10;;;5.05;;
12878;SDS011;20617;49.476;10.986;2023-08-17T07:41:20;8.00;;;5.28;;
12878;SDS011;20617;49.476;10.986;2023-08-17T07:45:30;8.63;;;5.78;;
12878;SDS011;20617;49.476;10.986;2023-08-17T07:47:40;6.15;;;4.82;;
12878;SDS011;20617;49.476;10.986;2023-08-17T07:49:45;7.53;;;5.43;;
12878;SDS011;20617;49.476;10.986;2023-08-17T07:51:50;8.48;;;5.90;;
12878;SDS011;20617;49.476;10.986;2023-08-17T07:53:55;7.65;;;5.90;;
12878;SDS011;20617;49.476;10.986;2023-08-17T07:58:05;6.77;;;5.40;;
12878;SDS011;20617;49.476;10.986;2023-08-17T08:00:11;8.23;;;5.88;;
12878;SDS011;20617;49.476;10.986;2023-08-17T08:02:17;8.85;;;5.22;;
12878;SDS011;20617;49.476;10.986;2023-08-17T08:04:25;5.30;;;4.53;;
12878;SDS011;20617;49.476;10.986;2023-08-17T08:06:30;6.57;;;5.00;;
12878;SDS011;20617;49.476;10.986;2023-08-17T08:08:35;7.32;;;5.60;;
12878;SDS011;20617;49.476;10.986;2023-08-17T08:10:40;7.82;;;5.53;;
12878;SDS011;20617;49.476;10.986;2023-08-17T08:12:45;9.02;;;5.57;;
12878;SDS011;20617;49.476;10.986;2023-08-17T08:14:48;7.65;;;5.30;;
12878;SDS011;20617;49.476;10.986;2023-08-17T08:16:53;7.57;;;5.25;;
12878;SDS011;20617;49.476;10.986;2023-08-17T08:18:58;7.60;;;5.15;;
12878;SDS011;20617;49.476;10.986;2023-08-17T08:21:06;6.00;;;5.15;;
12878;SDS011;20617;49.476;10.986;2023-08-17T08:23:10;6.13;;;5.05;;
12878;SDS011;20617;49.476;10.986;2023-08-17T08:25:17;7.05;;;4.90;;
12878;SDS011;20617;49.476;10.986;2023-08-17T08:27:22;10.45;;;6.25;;
12878;SDS011;20617;49.476;10.986;2023-08-17T08:29:27;8.45;;;5.07;;
12878;SDS011;20617;49.476;10.986;2023-08-17T08:31:32;10.88;;;6.40;;
12878;SDS011;20617;49.476;10.986;2023-08-17T08:33:37;6.38;;;5.03;;
12878;SDS011;20617;49.476;10.986;2023-08-17T08:35:42;6.00;;;5.10;;
12878;SDS011;20617;49.476;10.986;2023-08-17T08:37:50;5.47;;;4.97;;
12878;SDS011;20617;49.476;10.986;2023-08-17T08:39:57;4.57;;;4.18;;
12878;SDS011;20617;49.476;10.986;2023-08-17T08:42:02;6.68;;;5.18;;
12878;SDS011;20617;49.476;10.986;2023-08-17T08:44:08;5.32;;;4.43;;
12878;SDS011;20617;49.476;10.986;2023-08-17T08:46:13;6.97;;;5.03;;
12878;SDS011;20617;49.476;10.986;2023-08-17T08:48:21;6.28;;;5.10;;
12878;SDS011;20617;49.476;10.986;2023-08-17T08:50:31;5.35;;;4.63;;
12878;SDS011;20617;49.476;10.986;2023-08-17T08:52:39;10.35;;;5.47;;
12878;SDS011;20617;49.476;10.986;2023-08-17T08:54:51;5.35;;;4.85;;
12878;SDS011;20617;49.476;10.986;2023-08-17T08:57:00;6.32;;;5.20;;
12878;SDS011;20617;49.476;10.986;2023-08-17T08:59:08;5.72;;;5.20;;
12878;SDS011;20617;49.476;10.986;2023-08-17T09:01:15;7.75;;;5.38;;
12878;SDS011;20617;49.476;10.986;2023-08-17T09:03:21;6.50;;;5.72;;
12878;SDS011;20617;49.476;10.986;2023-08-17T09:05:27;5.20;;;4.72;;
12878;SDS011;20617;49.476;10.986;2023-08-17T09:07:33;5.93;;;5.32;;
12878;SDS011;20617;49.476;10.986;2023-08-17T09:09:37;7.73;;;4.93;;
12878;SDS011;20617;49.476;10.986;2023-08-17T09:11:45;4.93;;;4.40;;
12878;SDS011;20617;49.476;10.986;2023-08-17T09:13:50;6.15;;;5.55;;
12878;SDS011;20617;49.476;10.986;2023-08-17T09:15:57;6.93;;;4.63;;
12878;SDS011;20617;49.476;10.986;2023-08-17T09:18:08;8.93;;;5.10;;
12878;SDS011;20617;49.476;10.986;2023-08-17T09:22:47;7.07;;;4.95;;
12878;SDS011;20617;49.476;10.986;2023-08-17T09:24:54;8.52;;;5.20;;
12878;SDS011;20617;49.476;10.986;2023-08-17T09:27:06;5.63;;;5.13;;
12878;SDS011;20617;49.476;10.986;2023-08-17T09:29:17;5.45;;;4.95;;
12878;SDS011;20617;49.476;10.986;2023-08-17T09:31:23;5.38;;;4.85;;
12878;SDS011;20617;49.476;10.986;2023-08-17T09:33:29;5.47;;;4.70;;
12878;SDS011;20617;49.476;10.986;2023-08-17T09:35:35;6.05;;;5.50;;
12878;SDS011;20617;49.476;10.986;2023-08-17T09:37:37;5.60;;;4.97;;
12878;SDS011;20617;49.476;10.986;2023-08-17T09:39:42;6.32;;;4.93;;
12878;SDS011;20617;49.476;10.986;2023-08-17T09:41:47;6.30;;;5.03;;
12878;SDS011;20617;49.476;10.986;2023-08-17T09:43:56;5.38;;;4.53;;
12878;SDS011;20617;49.476;10.986;2023-08-17T09:46:01;5.95;;;5.35;;
12878;SDS011;20617;49.476;10.986;2023-08-17T09:48:09;5.10;;;4.60;;
12878;SDS011;20617;49.476;10.986;2023-08-17T09:50:14;6.20;;;5.60;;
12878;SDS011;20617;49.476;10.986;2023-08-17T09:52:19;6.55;;;5.95;;
12878;SDS011;20617;49.476;10.986;2023-08-17T09:54:27;6.65;;;5.35;;
12878;SDS011;20617;49.476;10.986;2023-08-17T09:56:34;6.93;;;5.60;;
12878;SDS011;20617;49.476;10.986;2023-08-17T09:58:41;7.55;;;6.25;;
12878;SDS011;20617;49.476;10.986;2023-08-17T10:00:49;6.80;;;5.32;;
12878;SDS011;20617;49.476;10.986;2023-08-17T10:02:55;6.32;;;4.50;;
12878;SDS011;20617;49.476;10.986;2023-08-17T10:05:09;6.32;;;5.30;;
12878;SDS011;20617;49.476;10.986;2023-08-17T10:07:16;5.57;;;4.82;;
12878;SDS011;20617;49.476;10.986;2023-08-17T10:09:27;5.70;;;5.18;;
12878;SDS011;20617;49.476;10.986;2023-08-17T10:11:50;5.20;;;4.70;;
12878;SDS011;20617;49.476;10.986;2023-08-17T10:14:02;6.93;;;6.18;;
12878;SDS011;20617;49.476;10.986;2023-08-17T10:16:17;6.38;;;5.63;;
12878;SDS011;20617;49.476;10.986;2023-08-17T10:18:36;5.78;;;5.18;;
12878;SDS011;20617;49.476;10.986;2023-08-17T10:20:52;5.65;;;4.80;;
12878;SDS011;20617;49.476;10.986;2023-08-17T10:23:07;5.78;;;5.28;;
12878;SDS011;20617;49.476;10.986;2023-08-17T10:25:16;7.30;;;5.70;;
12878;SDS011;20617;49.476;10.986;2023-08-17T10:27:22;5.78;;;5.07;;
12878;SDS011;20617;49.476;10.986;2023-08-17T10:29:27;4.93;;;4.53;;
12878;SDS011;20617;49.476;10.986;2023-08-17T10:31:37;5.80;;;5.25;;
12878;SDS011;20617;49.476;10.986;2023-08-17T10:33:42;5.65;;;5.05;;
12878;SDS011;20617;49.476;10.986;2023-08-17T10:35:50;5.85;;;5.20;;
12878;SDS011;20617;49.476;10.986;2023-08-17T10:37:56;6.28;;;5.20;;
12878;SDS011;20617;49.476;10.986;2023-08-17T10:39:59;5.05;;;4.55;;
12878;SDS011;20617;49.476;10.986;2023-08-17T10:42:05;5.53;;;4.95;;
12878;SDS011;20617;49.476;10.986;2023-08-17T10:44:10;5.53;;;5.03;;
12878;SDS011;20617;49.476;10.986;2023-08-17T10:46:15;6.93;;;5.15;;
12878;SDS011;20617;49.476;10.986;2023-08-17T10:48:27;4.90;;;4.40;;
12878;SDS011;20617;49.476;10.986;2023-08-17T10:50:38;6.93;;;5.78;;
12878;SDS011;20617;49.476;10.986;2023-08-17T10:52:44;6.63;;;5.40;;
12878;SDS011;20617;49.476;10.986;2023-08-17T10:54:49;5.32;;;4.82;;
12878;SDS011;20617;49.476;10.986;2023-08-17T10:56:54;5.57;;;4.72;;
12878;SDS011;20617;49.476;10.986;2023-08-17T10:59:00;4.85;;;4.43;;
12878;SDS011;20617;49.476;10.986;2023-08-17T11:01:05;6.90;;;5.05;;
12878;SDS011;20617;49.476;10.986;2023-08-17T11:03:09;5.47;;;4.47;;
12878;SDS011;20617;49.476;10.986;2023-08-17T11:07:45;5.20;;;4.70;;
12878;SDS011;20617;49.476;10.986;2023-08-17T11:09:53;4.72;;;4.28;;
12878;SDS011;20617;49.476;10.986;2023-08-17T11:11:59;5.68;;;5.18;;
12878;SDS011;20617;49.476;10.986;2023-08-17T11:14:04;6.82;;;5.30;;
12878;SDS011;20617;49.476;10.986;2023-08-17T11:16:10;5.60;;;5.10;;
12878;SDS011;20617;49.476;10.986;2023-08-17T11:18:19;5.15;;;4.70;;
12878;SDS011;20617;49.476;10.986;2023-08-17T11:20:24;5.03;;;4.60;;
12878;SDS011;20617;49.476;10.986;2023-08-17T11:22:30;5.18;;;4.68;;
12878;SDS011;20617;49.476;10.986;2023-08-17T11:24:35;8.65;;;4.90;;
12878;SDS011;20617;49.476;10.986;2023-08-17T11:26:44;5.65;;;4.93;;
12878;SDS011;20617;49.476;10.986;2023-08-17T11:28:51;4.93;;;4.43;;
12878;SDS011;20617;49.476;10.986;2023-08-17T11:30:56;7.13;;;4.75;;
12878;SDS011;20617;49.476;10.986;2023-08-17T11:33:02;5.20;;;4.70;;
12878;SDS011;20617;49.476;10.986;2023-08-17T11:35:10;4.95;;;4.30;;
12878;SDS011;20617;49.476;10.986;2023-08-17T11:37:15;6.63;;;4.70;;
12878;SDS011;20617;49.476;10.986;2023-08-17T11:39:25;5.90;;;4.40;;
12878;SDS011;20617;49.476;10.986;2023-08-17T11:41:30;6.00;;;5.38;;
12878;SDS011;20617;49.476;10.986;2023-08-17T11:43:38;4.88;;;4.20;;
12878;SDS011;20617;49.476;10.986;2023-08-17T11:45:43;6.05;;;5.45;;
12878;SDS011;20617;49.476;10.986;2023-08-17T11:47:48;5.53;;;4.80;;
12878;SDS011;20617;49.476;10.986;2023-08-17T11:49:58;4.75;;;4.35;;
12878;SDS011;20617;49.476;10.986;2023-08-17T11:52:21;5.28;;;4.45;;
12878;SDS011;20617;49.476;10.986;2023-08-17T11:54:29;5.68;;;4.53;;
12878;SDS011;20617;49.476;10.986;2023-08-17T11:56:37;5.22;;;4.72;;
12878;SDS011;20617;49.476;10.986;2023-08-17T11:58:43;6.28;;;5.20;;
12878;SDS011;20617;49.476;10.986;2023-08-17T12:00:50;6.07;;;4.15;;
12878;SDS011;20617;49.476;10.986;2023-08-17T12:02:57;5.38;;;4.75;;
12878;SDS011;20617;49.476;10.986;2023-08-17T12:05:02;6.65;;;5.30;;
12878;SDS011;20617;49.476;10.986;2023-08-17T12:07:09;5.28;;;4.70;;
12878;SDS011;20617;49.476;10.986;2023-08-17T12:09:14;5.15;;;4.20;;
12878;SDS011;20617;49.476;10.986;2023-08-17T12:11:23;6.88;;;5.00;;
12878;SDS011;20617;49.476;10.986;2023-08-17T12:13:29;6.90;;;4.90;;
12878;SDS011;20617;49.476;10.986;2023-08-17T12:15:35;5.03;;;4.53;;
12878;SDS011;20617;49.476;10.986;2023-08-17T12:17:43;7.32;;;4.85;;
12878;SDS011;20617;49.476;10.986;2023-08-17T12:19:53;4.50;;;4.10;;
12878;SDS011;20617;49.476;10.986;2023-08-17T12:21:59;5.13;;;4.55;;
12878;SDS011;20617;49.476;10.986;2023-08-17T12:24:04;4.25;;;3.88;;
12878;SDS011;20617;49.476;10.986;2023-08-17T12:26:10;9.48;;;4.63;;
12878;SDS011;20617;49.476;10.986;2023-08-17T12:28:24;4.45;;;4.05;;
12878;SDS011;20617;49.476;10.986;2023-08-17T12:30:31;4.03;;;3.63;;
12878;SDS011;20617;49.476;10.986;2023-08-17T12:32:37;5.45;;;4.53;;
12878;SDS011;20617;49.476;10.986;2023-08-17T12:34:42;6.18;;;4.22;;
12878;SDS011;20617;49.476;10.986;2023-08-17T12:36:48;7.85;;;3.78;;
12878;SDS011;20617;49.476;10.986;2023-08-17T12:38:54;4.53;;;3.78;;
12878;SDS011;20617;49.476;10.986;2023-08-17T12:40:59;4.75;;;4.03;;
12878;SDS011;20617;49.476;10.986;2023-08-17T12:43:07;7.53;;;5.25;;
12878;SDS011;20617;49.476;10.986;2023-08-17T12:45:18;4.38;;;3.97;;
12878;SDS011;20617;49.476;10.986;2023-08-17T12:47:28;4.63;;;4.22;;
12878;SDS011;20617;49.476;10.986;2023-08-17T12:49:36;4.03;;;3.63;;
12878;SDS011;20617;49.476;10.986;2023-08-17T12:51:41;4.20;;;3.83;;
12878;SDS011;20617;49.476;10.986;2023-08-17T12:53:47;5.05;;;4.55;;
12878;SDS011;20617;49.476;10.986;2023-08-17T12:55:52;10.73;;;4.60;;
12878;SDS011;20617;49.476;10.986;2023-08-17T12:57:57;5.10;;;4.47;;
12878;SDS011;20617;49.476;10.986;2023-08-17T13:00:03;8.57;;;4.25;;
12878;SDS011;20617;49.476;10.986;2023-08-17T13:02:11;5.18;;;4.65;;
12878;SDS011;20617;49.476;10.986;2023-08-17T13:04:16;5.95;;;3.85;;
12878;SDS011;20617;49.476;10.986;2023-08-17T13:06:21;4.90;;;4.40;;
12878;SDS011;20617;49.476;10.986;2023-08-17T13:08:44;4.40;;;4.00;;
12878;SDS011;20617;49.476;10.986;2023-08-17T13:10:49;8.13;;;3.58;;
12878;SDS011;20617;49.476;10.986;2023-08-17T13:12:54;4.80;;;3.72;;
12878;SDS011;20617;49.476;10.986;2023-08-17T13:15:01;4.53;;;4.13;;
12878;SDS011;20617;49.476;10.986;2023-08-17T13:17:06;5.07;;;4.07;;
12878;SDS011;20617;49.476;10.986;2023-08-17T13:19:13;6.07;;;4.47;;
12878;SDS011;20617;49.476;10.986;2023-08-17T13:21:16;6.50;;;4.80;;
12878;SDS011;20617;49.476;10.986;2023-08-17T13:23:22;5.15;;;3.72;;
12878;SDS011;20617;49.476;10.986;2023-08-17T13:25:27;4.20;;;3.80;;
12878;SDS011;20617;49.476;10.986;2023-08-17T13:27:32;4.38;;;3.97;;
12878;SDS011;20617;49.476;10.986;2023-08-17T13:29:37;3.83;;;3.53;;
12878;SDS011;20617;49.476;10.986;2023-08-17T13:31:42;5.20;;;3.78;;
12878;SDS011;20617;49.476;10.986;2023-08-17T13:33:47;4.93;;;3.80;;
12878;SDS011;20617;49.476;10.986;2023-08-17T13:35:55;4.32;;;3.92;;
12878;SDS011;20617;49.476;10.986;2023-08-17T13:38:00;5.07;;;3.85;;
12878;SDS011;20617;49.476;10.986;2023-08-17T13:40:07;4.40;;;4.00;;
12878;SDS011;20617;49.476;10.986;2023-08-17T13:42:13;4.72;;;4.13;;
12878;SDS011;20617;49.476;10.986;2023-08-17T13:44:18;6.15;;;4.40;;